Airfield :
LOGIN :

Register | Disclaimer

   EN    FR    IT 

 










Legend :    VFR   Marginal VFR   IFR   Intensive IFR   Very Intensive IFR
Visi :
Ceiling :
>= 8 km
>= 3000ft
5 to 8 km
1000 to 3000 ft
1500m to 5 km
500 to 1000 ft
800 to 1500m
200 to 500 ft
< 800m
< 200 ft
Symbols :   Thunderstorms  Fog  Heavy snow  Heavy precipitations  Wind > 20 kt
SIGMETs :     Misc.  Thunderstorms  Icing  Turbulence  Mountain Waves  Volcanic Ashes







- Airport Elevation : 297 ft
- IATA code : UIP
- Download approach charts


LFRQ - Quimper Pluguffan

CURRENT METAR :
  • 270300Z AUTO 18004KT 150V210 4200 BR BKN004 OVC010 15/15 Q1012

EXPIRED METARs :
  • 270230Z AUTO 19005KT 160V220 5000 BR OVC005 15/15 Q1011
  • 270200Z AUTO 17006KT 140V200 3100 BR OVC002 16/15 Q1011
  • 270130Z AUTO 18005KT 150V210 2800 BR OVC002 16/15 Q1011
  • 270100Z AUTO 17004KT 3200 BR OVC003 16/15 Q1011
  • 270030Z AUTO 15005KT 120V180 3300 BR OVC003 16/15 Q1012

TAF AMD TAF LFRQ
Valid from the 26 at 19:00 until the 27 at 18:00 UTC


261941Z 2619/2718 12005KT 9999 BKN020
TEMPO 2619/2622 SHRA BKN010 SCT015CB
BECMG 2622/2624 3000 BR OVC006
TEMPO 2700/2705 0500 FG BKN001
BECMG 2706/2708 BKN008
BECMG 2710/2712 9999 NSW BKN015
No reported NOTAMs for that airfield.



MET'MAP, your aeronautical weather chart ! - Copyright ORBIFLY December 2007 - Disclaimer

ORBIFLY MET'MAP TEAM :

Programming & Development : Alexandra Zaïnal
Concept & Development : Baudouin d'Aumeries
Co-Development & Prog : Marc-Olivier Méhu
Technical & hardware support : Manuel Goepfert

Contact : metmap@orbifly.com




SOURCES & CREDITS :

   NOAA